Astigarraga, Spain
Current Conditions -  °F | °C
As of 3:30 PM on Thursday 23 Oct 2014 (Local Time) from LESO Reporting Station
Clear Clear  
Wind Chill: 66°   Ceiling: Unl
Heat Index: 66°   Visibility: 6mi
Dew Point: 54°   Wind: 5mph
Humidity: 64%   Direction: 350°N
Pressure: 30.21"   Gusts: NA
Location:  43.28°N, 1.95°W
Report Text: LESO 231330Z 35004KT 310V030 CAVOK 19/12 Q1023
Loading
Personal Weather Stations






























Interactive Weather Map
Tropical Storm Tracking
New forecast layout! Learn more

10-Day Weather Forecast

Advertisements
Track Severe Weather on mobile